createdAt,value
2018-10-12T00:00:49.260Z,13.42
2018-10-12T00:03:17.898Z,13.48
2018-10-12T00:05:46.535Z,13.57
2018-10-12T00:08:15.150Z,13.64
2018-10-12T00:10:43.715Z,13.62
2018-10-12T00:13:12.268Z,13.59
2018-10-12T00:15:40.842Z,13.57
2018-10-12T00:18:09.406Z,13.55
2018-10-12T00:20:38.014Z,13.54
2018-10-12T00:23:06.567Z,13.51
2018-10-12T00:25:35.249Z,13.51
2018-10-12T00:28:03.876Z,13.53
2018-10-12T00:30:32.419Z,13.53
2018-10-12T00:33:00.965Z,13.56
2018-10-12T00:35:29.485Z,13.57
2018-10-12T00:37:58.541Z,13.57
2018-10-12T00:40:27.254Z,13.58
2018-10-12T00:42:55.917Z,13.56
2018-10-12T00:45:24.464Z,13.53
2018-10-12T00:47:58.463Z,13.55
2018-10-12T00:50:27.571Z,13.55
2018-10-12T00:52:56.204Z,13.52
2018-10-12T00:55:26.326Z,13.51
2018-10-12T00:57:54.877Z,13.46
2018-10-12T01:00:24.565Z,13.46
2018-10-12T01:02:53.125Z,13.42
2018-10-12T01:05:21.713Z,13.41
2018-10-12T01:07:50.518Z,13.39
2018-10-12T01:10:19.300Z,13.34
2018-10-12T01:12:48.375Z,13.33
2018-10-12T01:15:17.470Z,13.30
2018-10-12T01:17:46.093Z,13.26
2018-10-12T01:20:14.682Z,13.20
2018-10-12T01:22:43.266Z,13.10
2018-10-12T01:25:11.854Z,13.03
2018-10-12T01:27:40.774Z,12.98
2018-10-12T01:30:09.402Z,12.96
2018-10-12T01:32:43.207Z,12.95
2018-10-12T01:35:11.808Z,12.87
2018-10-12T01:37:40.538Z,12.86
2018-10-12T01:40:09.218Z,12.83
2018-10-12T01:42:44.518Z,12.72
2018-10-12T01:45:13.083Z,12.73
2018-10-12T01:47:41.660Z,12.76
2018-10-12T01:50:10.376Z,12.75
2018-10-12T01:52:39.056Z,12.68
2018-10-12T01:55:07.874Z,12.59
2018-10-12T01:57:36.471Z,12.55
2018-10-12T02:00:05.218Z,12.60
2018-10-12T02:02:33.880Z,12.61
2018-10-12T02:05:02.481Z,12.60
2018-10-12T02:07:31.241Z,12.60
2018-10-12T02:09:59.857Z,12.61
2018-10-12T02:12:28.658Z,12.65
2018-10-12T02:14:57.218Z,12.67
2018-10-12T02:17:25.805Z,12.70
2018-10-12T02:19:54.345Z,12.72
2018-10-12T02:22:23.211Z,12.73
2018-10-12T02:24:51.933Z,12.77
2018-10-12T02:27:20.480Z,12.76
2018-10-12T02:29:49.066Z,12.76
2018-10-12T02:32:17.649Z,12.74
2018-10-12T02:34:46.288Z,12.73
2018-10-12T02:37:14.909Z,12.70
2018-10-12T02:39:43.518Z,12.67
2018-10-12T02:42:12.857Z,12.64
2018-10-12T02:44:42.126Z,12.63
2018-10-12T02:47:10.800Z,12.57
2018-10-12T02:49:39.594Z,12.53
2018-10-12T02:52:08.357Z,12.55
2018-10-12T02:54:36.922Z,12.51
2018-10-12T02:57:05.538Z,12.51
2018-10-12T02:59:34.087Z,12.48
2018-10-12T03:02:02.947Z,12.46
2018-10-12T03:04:31.916Z,12.52
2018-10-12T03:07:00.578Z,12.59
2018-10-12T03:09:29.206Z,12.61
2018-10-12T03:11:57.894Z,12.61
2018-10-12T03:14:26.733Z,12.59
2018-10-12T03:16:55.751Z,12.58
2018-10-12T03:19:25.017Z,12.57
2018-10-12T03:21:53.758Z,12.59
2018-10-12T03:24:22.480Z,12.59
2018-10-12T03:26:51.040Z,12.63
2018-10-12T03:29:19.934Z,12.66
2018-10-12T03:31:49.446Z,12.68
2018-10-12T03:34:18.026Z,12.72
2018-10-12T03:36:46.638Z,12.74
2018-10-12T03:39:15.162Z,12.76
2018-10-12T03:41:44.269Z,12.73
2018-10-12T03:44:13.429Z,12.83
2018-10-12T03:46:43.232Z,12.83
2018-10-12T03:49:12.274Z,12.87
2018-10-12T03:51:40.807Z,12.88
2018-10-12T03:54:09.896Z,12.87
2018-10-12T03:56:38.890Z,12.91
2018-10-12T03:59:07.546Z,12.94
2018-10-12T04:01:36.150Z,12.91
2018-10-12T04:04:04.858Z,12.92
2018-10-12T04:06:33.422Z,12.88
2018-10-12T04:09:01.950Z,12.84
2018-10-12T04:11:30.532Z,12.81
2018-10-12T04:13:59.094Z,12.73
2018-10-12T04:16:27.644Z,12.72
2018-10-12T04:18:56.214Z,12.61
2018-10-12T04:21:25.348Z,12.58
2018-10-12T04:23:53.956Z,12.59
2018-10-12T04:26:22.901Z,12.61
2018-10-12T04:28:51.505Z,12.62
2018-10-12T04:31:20.971Z,12.61
2018-10-12T04:33:49.703Z,12.63
2018-10-12T04:36:18.401Z,12.63
2018-10-12T04:38:58.053Z,12.62
2018-10-12T04:41:27.114Z,12.58
2018-10-12T04:44:00.642Z,12.54
2018-10-12T04:46:33.073Z,12.47
2018-10-12T04:49:02.419Z,12.26
2018-10-12T04:51:35.476Z,12.09
2018-10-12T04:54:04.625Z,11.80
2018-10-12T04:56:33.357Z,11.57
2018-10-12T04:59:02.273Z,11.41
2018-10-12T05:01:32.058Z,11.28
2018-10-12T05:04:00.628Z,11.24
2018-10-12T05:06:30.278Z,11.38
2018-10-12T05:08:58.923Z,11.41
2018-10-12T05:11:27.502Z,11.43
2018-10-12T05:13:56.198Z,11.56
2018-10-12T05:16:26.383Z,11.68
2018-10-12T05:18:55.294Z,11.70
2018-10-12T05:21:23.880Z,11.69
2018-10-12T05:23:52.504Z,11.85
2018-10-12T05:26:21.043Z,11.99
2018-10-12T05:28:49.600Z,12.09
2018-10-12T05:31:18.226Z,12.15
2018-10-12T05:33:47.083Z,12.23
2018-10-12T05:36:16.654Z,12.22
2018-10-12T05:38:45.391Z,12.34
2018-10-12T05:41:14.771Z,12.43
2018-10-12T05:43:44.243Z,12.47
2018-10-12T05:46:13.170Z,12.54
2018-10-12T05:48:52.947Z,12.58
2018-10-12T05:51:21.919Z,12.54
2018-10-12T05:53:51.525Z,12.50
2018-10-12T05:56:26.401Z,12.52
2018-10-12T05:58:56.083Z,12.63
2018-10-12T06:01:25.015Z,12.80
2018-10-12T06:03:54.093Z,13.12
2018-10-12T06:06:22.881Z,13.29
2018-10-12T06:08:53.555Z,13.54
2018-10-12T06:11:22.241Z,14.18
2018-10-12T06:13:51.466Z,15.35
2018-10-12T06:16:20.631Z,16.76
2018-10-12T06:18:49.818Z,18.06
2018-10-12T06:21:18.678Z,19.11
2018-10-12T06:23:47.946Z,20.16
2018-10-12T06:26:17.082Z,20.96
2018-10-12T06:28:45.698Z,21.52
2018-10-12T06:31:14.419Z,22.03
2018-10-12T06:33:43.206Z,22.21
2018-10-12T06:36:12.195Z,21.85
2018-10-12T06:38:40.943Z,22.18
2018-10-12T06:41:09.897Z,22.65
2018-10-12T06:43:38.829Z,23.31
2018-10-12T06:46:08.038Z,24.19
2018-10-12T06:48:36.642Z,24.36
2018-10-12T06:51:05.230Z,24.37
2018-10-12T06:53:33.831Z,24.32
2018-10-12T06:56:02.516Z,24.35
2018-10-12T06:58:31.077Z,23.84
2018-10-12T07:00:59.755Z,23.10
2018-10-12T07:03:28.476Z,22.47
2018-10-12T07:05:57.062Z,22.06
2018-10-12T07:08:25.740Z,22.33
2018-10-12T07:10:54.970Z,22.33
2018-10-12T07:13:23.557Z,22.77
2018-10-12T07:15:52.169Z,23.25
2018-10-12T07:18:20.783Z,24.09
2018-10-12T07:20:50.038Z,25.69
2018-10-12T07:23:19.249Z,26.98
2018-10-12T07:25:48.387Z,27.59
2018-10-12T07:28:17.782Z,28.70
2018-10-12T07:30:46.946Z,28.65
2018-10-12T07:33:16.687Z,28.67
2018-10-12T07:35:45.854Z,27.89
2018-10-12T07:38:15.694Z,26.41
2018-10-12T07:40:44.929Z,25.20
2018-10-12T07:43:14.090Z,24.90
2018-10-12T07:45:43.123Z,24.86
2018-10-12T07:48:12.317Z,24.32
2018-10-12T07:50:42.670Z,23.78
2018-10-12T07:53:12.674Z,23.99
2018-10-12T07:55:41.767Z,24.36
2018-10-12T07:58:10.466Z,24.57
2018-10-12T08:00:39.185Z,25.35
2018-10-12T08:03:08.630Z,26.44
2018-10-12T08:05:37.268Z,26.87
2018-10-12T08:08:06.418Z,27.12
2018-10-12T08:10:36.187Z,26.93
2018-10-12T08:13:05.431Z,26.64
2018-10-12T08:15:34.667Z,25.92
2018-10-12T08:18:03.734Z,25.13
2018-10-12T08:20:32.539Z,24.17
2018-10-12T08:23:02.075Z,23.42
2018-10-12T08:25:30.969Z,22.78
2018-10-12T08:27:59.522Z,22.45
2018-10-12T08:30:28.106Z,22.44
2018-10-12T08:32:56.673Z,22.49
2018-10-12T08:35:25.259Z,22.58
2018-10-12T08:37:53.838Z,22.47
2018-10-12T08:40:23.115Z,22.25
2018-10-12T08:42:51.706Z,22.18
2018-10-12T08:45:20.253Z,22.24
2018-10-12T08:47:48.895Z,22.32
2018-10-12T08:50:17.508Z,22.30
2018-10-12T08:52:46.109Z,22.49
2018-10-12T08:55:15.430Z,22.63
2018-10-12T08:57:44.334Z,22.45
2018-10-12T09:00:13.246Z,22.40
2018-10-12T09:02:41.839Z,22.39
2018-10-12T09:05:10.427Z,22.40
2018-10-12T09:07:39.027Z,22.41
2018-10-12T09:10:07.964Z,22.46
2018-10-12T09:12:36.834Z,22.48
2018-10-12T09:15:05.468Z,22.20
2018-10-12T09:17:34.493Z,22.00
2018-10-12T09:20:03.173Z,21.96
2018-10-12T09:22:31.728Z,22.00
2018-10-12T09:25:00.326Z,21.91
2018-10-12T09:27:29.227Z,21.82
2018-10-12T09:29:57.784Z,21.75
2018-10-12T09:32:26.402Z,21.79
2018-10-12T09:34:55.102Z,21.93
2018-10-12T09:37:23.743Z,22.01
2018-10-12T09:39:52.538Z,22.11
2018-10-12T09:42:21.096Z,21.94
2018-10-12T09:44:50.010Z,21.95
2018-10-12T09:47:18.587Z,21.89
2018-10-12T09:49:47.231Z,21.90
2018-10-12T09:52:15.926Z,22.03
2018-10-12T09:54:44.592Z,22.07
2018-10-12T09:57:18.444Z,22.16
2018-10-12T09:59:47.017Z,22.25
2018-10-12T10:02:21.115Z,22.27
2018-10-12T10:04:49.836Z,22.12
2018-10-12T10:07:18.662Z,22.16
2018-10-12T10:09:47.262Z,22.21
2018-10-12T10:12:16.200Z,22.09
2018-10-12T10:14:44.764Z,22.14
2018-10-12T10:17:13.306Z,22.27
2018-10-12T10:19:41.859Z,22.31
2018-10-12T10:22:10.425Z,22.40
2018-10-12T10:24:39.009Z,22.56
2018-10-12T10:27:08.046Z,22.61
2018-10-12T10:29:36.726Z,22.61
2018-10-12T10:32:05.408Z,22.71
2018-10-12T10:34:34.143Z,22.74
2018-10-12T10:37:03.102Z,22.84
2018-10-12T10:39:31.661Z,22.75
2018-10-12T10:42:00.813Z,22.78
2018-10-12T10:44:29.380Z,22.82
2018-10-12T10:46:57.970Z,22.93
2018-10-12T10:49:26.629Z,22.87
2018-10-12T10:51:55.398Z,22.81
2018-10-12T10:54:23.979Z,22.82
2018-10-12T10:56:54.874Z,22.93
2018-10-12T10:59:23.444Z,22.94
2018-10-12T11:01:52.023Z,22.88
2018-10-12T11:04:20.574Z,22.89
2018-10-12T11:06:49.549Z,22.84
2018-10-12T11:09:18.135Z,22.79
2018-10-12T11:11:46.712Z,22.75
2018-10-12T11:14:15.367Z,22.78
2018-10-12T11:16:44.024Z,22.86
2018-10-12T11:19:12.573Z,22.94
2018-10-12T11:21:41.113Z,22.99
2018-10-12T11:24:09.821Z,23.04
2018-10-12T11:26:38.789Z,23.15
2018-10-12T11:29:07.534Z,23.15
2018-10-12T11:31:36.158Z,23.22
2018-10-12T11:34:04.743Z,23.24
2018-10-12T11:36:33.340Z,23.21
2018-10-12T11:39:01.974Z,23.11
2018-10-12T11:41:31.118Z,23.08
2018-10-12T11:43:59.693Z,23.11
2018-10-12T11:46:28.286Z,23.16
2018-10-12T11:48:56.942Z,23.25
2018-10-12T11:51:26.126Z,23.31
2018-10-12T11:53:54.703Z,23.35
2018-10-12T11:56:23.850Z,23.38
2018-10-12T11:58:52.386Z,23.42
2018-10-12T12:01:21.043Z,23.48
2018-10-12T12:03:49.833Z,23.50
2018-10-12T12:06:18.452Z,23.46
2018-10-12T12:08:47.069Z,23.46
2018-10-12T12:11:15.638Z,23.50
2018-10-12T12:13:44.227Z,23.52
2018-10-12T12:16:13.016Z,23.61
2018-10-12T12:18:41.593Z,23.66
2018-10-12T12:21:10.246Z,23.73
2018-10-12T12:23:38.827Z,23.71
2018-10-12T12:26:07.894Z,23.68
2018-10-12T12:28:36.480Z,23.74
2018-10-12T12:31:05.148Z,23.77
2018-10-12T12:33:34.322Z,23.80
2018-10-12T12:36:03.932Z,23.86
2018-10-12T12:38:32.579Z,23.90
2018-10-12T12:41:01.324Z,23.90
2018-10-12T12:43:30.542Z,23.91
2018-10-12T12:45:59.738Z,23.89
2018-10-12T12:48:28.659Z,23.92
2018-10-12T12:50:57.252Z,23.96
2018-10-12T12:53:26.441Z,23.99
2018-10-12T12:55:55.596Z,23.99
2018-10-12T12:58:24.189Z,23.99
2018-10-12T13:00:53.067Z,24.00
2018-10-12T13:03:22.377Z,23.99
2018-10-12T13:05:51.812Z,23.97
2018-10-12T13:08:20.490Z,24.00
2018-10-12T13:10:49.098Z,23.99
2018-10-12T13:13:17.718Z,24.02
2018-10-12T13:15:46.540Z,24.03
2018-10-12T13:18:15.152Z,24.02
2018-10-12T13:20:43.737Z,24.01
2018-10-12T13:23:12.709Z,23.98
2018-10-12T13:25:41.458Z,24.01
2018-10-12T13:28:10.402Z,24.01
2018-10-12T13:30:39.013Z,24.05
2018-10-12T13:33:07.610Z,24.07
2018-10-12T13:35:36.219Z,24.07
2018-10-12T13:38:04.808Z,24.06
2018-10-12T13:40:33.507Z,24.06
2018-10-12T13:43:02.460Z,24.04
2018-10-12T13:45:31.129Z,23.97
2018-10-12T13:48:00.342Z,23.96
2018-10-12T13:50:29.506Z,23.95
2018-10-12T13:52:58.098Z,23.89
2018-10-12T13:55:26.906Z,23.87
2018-10-12T13:57:55.482Z,23.85
2018-10-12T14:00:24.291Z,23.79
2018-10-12T14:02:53.390Z,23.77
2018-10-12T14:05:22.117Z,23.75
2018-10-12T14:07:50.768Z,23.72
2018-10-12T14:10:19.361Z,23.71
2018-10-12T14:12:48.233Z,23.71
2018-10-12T14:15:17.718Z,23.71
2018-10-12T14:17:46.299Z,23.67
2018-10-12T14:20:14.920Z,23.65
2018-10-12T14:22:44.440Z,23.65
2018-10-12T14:25:13.225Z,23.64
2018-10-12T14:27:42.042Z,23.58
2018-10-12T14:30:10.637Z,23.55
2018-10-12T14:32:39.245Z,23.51
2018-10-12T14:35:08.123Z,23.45
2018-10-12T14:37:37.032Z,23.44
2018-10-12T14:40:05.594Z,23.36
2018-10-12T14:42:35.016Z,23.32
2018-10-12T14:45:03.760Z,23.31
2018-10-12T14:47:32.699Z,23.27
2018-10-12T14:50:01.283Z,23.20
2018-10-12T14:52:29.898Z,23.14
2018-10-12T14:54:58.462Z,23.05
2018-10-12T14:57:27.084Z,22.97
2018-10-12T14:59:55.682Z,22.89
2018-10-12T15:02:24.322Z,22.87
2018-10-12T15:04:52.931Z,22.75
2018-10-12T15:07:21.539Z,22.74
2018-10-12T15:09:50.163Z,22.69
2018-10-12T15:12:18.742Z,22.58
2018-10-12T15:14:58.554Z,22.56
2018-10-12T15:17:27.105Z,22.50
2018-10-12T15:19:55.740Z,22.40
2018-10-12T15:22:24.584Z,22.26
2018-10-12T15:24:53.167Z,22.15
2018-10-12T15:27:21.774Z,22.07
2018-10-12T15:29:50.344Z,21.99
2018-10-12T15:32:18.930Z,21.93
2018-10-12T15:34:47.496Z,21.87
2018-10-12T15:37:16.118Z,21.80
2018-10-12T15:39:44.934Z,21.76
2018-10-12T15:42:13.865Z,21.70
2018-10-12T15:44:42.434Z,21.63
2018-10-12T15:47:11.021Z,21.51
2018-10-12T15:49:44.516Z,21.42
2018-10-12T15:52:13.223Z,21.39
2018-10-12T15:54:41.791Z,21.31
2018-10-12T15:57:10.527Z,21.22
2018-10-12T15:59:39.243Z,21.10
2018-10-12T16:02:08.627Z,21.02
2018-10-12T16:04:37.450Z,20.96
2018-10-12T16:07:06.361Z,20.87
2018-10-12T16:09:34.935Z,20.77
2018-10-12T16:12:03.915Z,20.70
2018-10-12T16:14:32.519Z,20.60
2018-10-12T16:17:01.330Z,20.51
2018-10-12T16:19:29.899Z,20.46
2018-10-12T16:21:58.525Z,20.38
2018-10-12T16:24:27.204Z,20.26
2018-10-12T16:26:55.862Z,20.16
2018-10-12T16:29:24.434Z,20.07
2018-10-12T16:31:53.007Z,19.98
2018-10-12T16:34:21.646Z,19.90
2018-10-12T16:36:50.200Z,19.84
2018-10-12T16:39:18.830Z,19.78
2018-10-12T16:41:47.532Z,19.77
2018-10-12T16:44:16.601Z,19.72
2018-10-12T16:46:46.090Z,19.67
2018-10-12T16:49:14.635Z,19.63
2018-10-12T16:51:43.218Z,19.51
2018-10-12T16:54:11.782Z,19.44
2018-10-12T16:56:40.384Z,19.41
2018-10-12T16:59:09.118Z,19.38
2018-10-12T17:01:38.738Z,19.33
2018-10-12T17:04:07.438Z,19.25
2018-10-12T17:06:36.556Z,19.17
2018-10-12T17:09:05.904Z,19.03
2018-10-12T17:11:34.522Z,18.96
2018-10-12T17:14:03.086Z,18.89
2018-10-12T17:16:31.640Z,18.94
2018-10-12T17:19:00.237Z,18.94
2018-10-12T17:21:28.945Z,18.90
2018-10-12T17:23:57.577Z,18.86
2018-10-12T17:26:26.138Z,18.81
2018-10-12T17:28:54.707Z,18.76
2018-10-12T17:31:23.244Z,18.69
2018-10-12T17:33:51.803Z,18.55
2018-10-12T17:36:20.536Z,18.48
2018-10-12T17:38:49.134Z,18.38
2018-10-12T17:41:19.238Z,18.33
2018-10-12T17:43:48.126Z,18.22
2018-10-12T17:46:17.053Z,18.14
2018-10-12T17:48:45.666Z,18.05
2018-10-12T17:51:14.549Z,17.95
2018-10-12T17:53:43.249Z,17.95
2018-10-12T17:56:11.835Z,17.93
2018-10-12T17:58:40.544Z,17.87
2018-10-12T18:01:09.306Z,17.81
2018-10-12T18:03:37.878Z,17.82
2018-10-12T18:06:06.801Z,17.80
2018-10-12T18:08:35.349Z,17.77
2018-10-12T18:11:03.906Z,17.82
2018-10-12T18:13:32.494Z,17.83
2018-10-12T18:16:01.083Z,17.83
2018-10-12T18:18:29.730Z,17.81
2018-10-12T18:20:58.309Z,17.78
2018-10-12T18:23:26.892Z,17.75
2018-10-12T18:25:55.544Z,17.66
2018-10-12T18:28:24.314Z,17.65
2018-10-12T18:30:52.871Z,17.61
2018-10-12T18:33:21.530Z,17.53
2018-10-12T18:35:50.174Z,17.44
2018-10-12T18:38:18.777Z,17.35
2018-10-12T18:40:47.347Z,17.36
2018-10-12T18:43:16.031Z,17.34
2018-10-12T18:45:44.745Z,17.28
2018-10-12T18:48:13.468Z,17.22
2018-10-12T18:50:42.394Z,17.19
2018-10-12T18:53:11.118Z,17.10
2018-10-12T18:55:39.705Z,17.09
2018-10-12T18:58:08.303Z,17.04
2018-10-12T19:00:36.890Z,16.97
2018-10-12T19:03:05.530Z,16.96
2018-10-12T19:05:34.085Z,16.91
2018-10-12T19:08:02.831Z,16.94
2018-10-12T19:10:31.454Z,17.02
2018-10-12T19:12:59.998Z,17.05
2018-10-12T19:15:28.591Z,17.03
2018-10-12T19:17:57.225Z,17.00
2018-10-12T19:20:25.781Z,16.98
2018-10-12T19:22:54.369Z,16.96
2018-10-12T19:25:23.090Z,16.90
2018-10-12T19:27:51.826Z,16.87
2018-10-12T19:30:20.403Z,16.84
2018-10-12T19:32:49.103Z,16.79
2018-10-12T19:35:17.697Z,16.76
2018-10-12T19:37:46.325Z,16.73
2018-10-12T19:40:14.942Z,16.70
2018-10-12T19:42:43.646Z,16.68
2018-10-12T19:45:12.253Z,16.60
2018-10-12T19:47:41.253Z,16.40
2018-10-12T19:50:09.832Z,16.19
2018-10-12T19:52:38.452Z,16.15
2018-10-12T19:55:07.343Z,16.21
2018-10-12T19:57:35.907Z,16.28
2018-10-12T20:00:04.757Z,16.30
2018-10-12T20:02:33.442Z,16.30
2018-10-12T20:05:02.049Z,16.30
2018-10-12T20:07:30.615Z,16.24
2018-10-12T20:09:59.170Z,16.22
2018-10-12T20:12:27.735Z,16.18
2018-10-12T20:14:56.408Z,16.07
2018-10-12T20:17:25.039Z,16.10
2018-10-12T20:19:53.886Z,16.01
2018-10-12T20:22:22.438Z,15.98
2018-10-12T20:24:51.006Z,15.97
2018-10-12T20:27:19.566Z,15.94
2018-10-12T20:29:48.154Z,15.91
2018-10-12T20:32:16.730Z,15.92
2018-10-12T20:34:45.414Z,15.97
2018-10-12T20:37:13.998Z,16.02
2018-10-12T20:39:42.543Z,16.03
2018-10-12T20:42:11.155Z,16.01
2018-10-12T20:44:39.712Z,15.95
2018-10-12T20:47:08.292Z,15.89
2018-10-12T20:49:36.941Z,15.86
2018-10-12T20:52:05.728Z,15.88
2018-10-12T20:54:34.347Z,15.85
2018-10-12T20:57:02.939Z,15.87
2018-10-12T20:59:31.662Z,15.92
2018-10-12T21:02:00.259Z,15.95
2018-10-12T21:04:28.818Z,15.96
2018-10-12T21:07:01.071Z,15.90
2018-10-12T21:09:29.621Z,15.89
2018-10-12T21:11:58.186Z,15.83
2018-10-12T21:14:26.824Z,15.76
2018-10-12T21:16:55.761Z,15.64
2018-10-12T21:19:24.577Z,15.53
2018-10-12T21:21:53.305Z,15.34
2018-10-12T21:24:21.894Z,15.25
2018-10-12T21:26:50.470Z,15.19
2018-10-12T21:29:19.014Z,15.15
2018-10-12T21:31:47.802Z,15.07
2018-10-12T21:34:16.573Z,14.94
2018-10-12T21:36:45.278Z,14.93
2018-10-12T21:39:14.110Z,14.86
2018-10-12T21:41:42.684Z,14.83
2018-10-12T21:44:11.655Z,14.84
2018-10-12T21:46:40.292Z,14.79
2018-10-12T21:49:08.983Z,14.74
2018-10-12T21:51:37.762Z,14.73
2018-10-12T21:54:06.400Z,14.63
2018-10-12T21:56:35.003Z,14.51
2018-10-12T21:59:03.582Z,14.58
2018-10-12T22:01:32.233Z,14.69
2018-10-12T22:04:00.802Z,14.73
2018-10-12T22:06:29.825Z,14.65
2018-10-12T22:09:02.690Z,14.67
2018-10-12T22:11:31.294Z,14.57
2018-10-12T22:13:59.871Z,14.31
2018-10-12T22:16:28.709Z,14.01
2018-10-12T22:18:57.634Z,13.84
2018-10-12T22:21:26.614Z,13.69
2018-10-12T22:23:55.207Z,13.76
2018-10-12T22:26:23.835Z,13.80
2018-10-12T22:28:52.402Z,13.81
2018-10-12T22:31:20.994Z,13.72
2018-10-12T22:33:49.666Z,13.59
2018-10-12T22:36:19.261Z,13.38
2018-10-12T22:38:48.006Z,13.25
2018-10-12T22:41:16.758Z,13.26
2018-10-12T22:43:45.398Z,13.20
2018-10-12T22:46:14.062Z,12.97
2018-10-12T22:48:42.671Z,12.92
2018-10-12T22:51:11.255Z,12.75
2018-10-12T22:53:40.400Z,12.63
2018-10-12T22:56:09.341Z,12.61
2018-10-12T22:58:38.071Z,12.66
2018-10-12T23:01:07.187Z,12.63
2018-10-12T23:03:35.985Z,12.53
2018-10-12T23:06:04.571Z,12.50
2018-10-12T23:08:33.209Z,12.45
2018-10-12T23:11:01.922Z,12.52
2018-10-12T23:13:30.682Z,12.44
2018-10-12T23:15:59.415Z,12.33
2018-10-12T23:18:28.305Z,12.24
2018-10-12T23:20:58.225Z,12.23
2018-10-12T23:23:26.941Z,12.18
2018-10-12T23:25:55.639Z,12.18
2018-10-12T23:28:24.271Z,12.15
2018-10-12T23:30:52.939Z,12.17
2018-10-12T23:33:32.734Z,12.04
2018-10-12T23:36:01.471Z,11.99
2018-10-12T23:38:30.086Z,12.02
2018-10-12T23:40:58.734Z,11.89
2018-10-12T23:43:27.344Z,11.85
2018-10-12T23:45:55.906Z,11.93
2018-10-12T23:48:24.748Z,12.11
2018-10-12T23:50:55.591Z,12.05
2018-10-12T23:53:24.403Z,12.01
2018-10-12T23:55:53.043Z,12.02
2018-10-12T23:58:24.588Z,11.99
